createdAt,value
2024-03-16T00:03:57.583Z,12.14
2024-03-16T00:09:41.392Z,12.08
2024-03-16T00:15:11.321Z,12.05
2024-03-16T00:21:27.587Z,12.01
2024-03-16T00:27:36.422Z,11.95
2024-03-16T00:33:05.969Z,11.93
2024-03-16T00:38:53.600Z,11.90
2024-03-16T00:44:22.495Z,11.85
2024-03-16T00:50:20.483Z,11.81
2024-03-16T00:55:51.140Z,11.76
2024-03-16T01:01:25.502Z,11.66
2024-03-16T01:06:51.029Z,11.55
2024-03-16T01:12:03.977Z,11.47
2024-03-16T01:17:36.794Z,11.40
2024-03-16T01:23:30.769Z,11.32
2024-03-16T01:29:05.514Z,11.19
2024-03-16T01:35:03.454Z,11.05
2024-03-16T01:40:26.845Z,10.90
2024-03-16T01:45:56.222Z,10.74
2024-03-16T01:51:21.238Z,10.57
2024-03-16T01:56:28.347Z,10.41
2024-03-16T02:01:59.103Z,10.30
2024-03-16T02:07:15.049Z,10.30
2024-03-16T02:12:43.568Z,10.32
2024-03-16T02:18:03.447Z,10.29
2024-03-16T02:23:53.941Z,10.21
2024-03-16T02:30:19.474Z,10.12
2024-03-16T02:35:29.818Z,10.01
2024-03-16T02:41:44.868Z,9.90
2024-03-16T02:48:00.088Z,9.76
2024-03-16T02:53:52.681Z,9.62
2024-03-16T02:59:31.981Z,9.54
2024-03-16T03:05:10.397Z,9.50
2024-03-16T03:10:47.241Z,9.55
2024-03-16T03:17:04.695Z,9.64
2024-03-16T03:22:47.863Z,9.79
2024-03-16T03:28:57.870Z,9.91
2024-03-16T03:34:35.511Z,10.02
2024-03-16T03:40:04.173Z,10.11
2024-03-16T03:45:50.204Z,10.17
2024-03-16T03:51:27.079Z,10.18
2024-03-16T03:57:15.153Z,10.09
2024-03-16T04:03:06.762Z,9.97
2024-03-16T04:09:21.456Z,9.86
2024-03-16T04:15:47.732Z,9.74
2024-03-16T04:21:53.200Z,9.63
2024-03-16T04:28:00.010Z,9.55
2024-03-16T04:34:01.256Z,9.47
2024-03-16T04:40:11.846Z,9.43
2024-03-16T04:45:38.120Z,9.37
2024-03-16T04:51:56.610Z,9.29
2024-03-16T04:58:01.542Z,9.24
2024-03-16T05:04:19.020Z,9.19
2024-03-16T05:09:49.021Z,9.14
2024-03-16T05:15:13.050Z,9.08
2024-03-16T05:20:52.631Z,9.07
2024-03-16T05:26:19.426Z,9.09
2024-03-16T05:31:33.454Z,9.10
2024-03-16T05:37:08.345Z,9.12
2024-03-16T05:43:03.951Z,9.14
2024-03-16T05:48:19.977Z,9.23
2024-03-16T05:54:23.625Z,9.32
2024-03-16T06:00:30.039Z,9.41
2024-03-16T06:06:38.248Z,9.59
2024-03-16T06:12:57.093Z,9.79
2024-03-16T06:18:20.531Z,9.95
2024-03-16T06:23:28.095Z,10.06
2024-03-16T06:28:36.123Z,10.16
2024-03-16T06:33:49.659Z,10.28
2024-03-16T06:39:14.434Z,10.42
2024-03-16T06:44:48.941Z,10.56
2024-03-16T06:50:51.416Z,10.71
2024-03-16T06:56:27.630Z,10.85
2024-03-16T07:02:56.406Z,10.95
2024-03-16T07:08:59.830Z,11.15
2024-03-16T07:15:05.074Z,11.35
2024-03-16T07:21:13.181Z,11.58
2024-03-16T07:26:29.421Z,11.91
2024-03-16T07:31:37.911Z,12.20
2024-03-16T07:37:16.001Z,12.52
2024-03-16T07:42:54.110Z,12.79
2024-03-16T07:48:14.312Z,13.22
2024-03-16T07:54:39.098Z,13.72
2024-03-16T08:00:37.284Z,14.32
2024-03-16T08:06:38.405Z,14.86
2024-03-16T08:12:16.397Z,15.41
2024-03-16T08:17:29.711Z,15.67
2024-03-16T08:22:55.574Z,15.87
2024-03-16T08:28:00.217Z,15.94
2024-03-16T08:33:08.743Z,15.97
2024-03-16T08:38:31.787Z,16.13
2024-03-16T08:43:39.862Z,16.44
2024-03-16T08:49:04.515Z,16.50
2024-03-16T08:54:11.906Z,16.52
2024-03-16T08:59:17.242Z,16.54
2024-03-16T09:05:12.997Z,16.51
2024-03-16T09:10:48.025Z,16.67
2024-03-16T09:16:15.968Z,16.81
2024-03-16T09:22:02.590Z,16.91
2024-03-16T09:27:41.075Z,17.09
2024-03-16T09:33:35.331Z,17.10
2024-03-16T09:39:34.709Z,17.00
2024-03-16T09:44:56.371Z,16.70
2024-03-16T09:50:03.637Z,16.48
2024-03-16T09:55:44.458Z,16.39
2024-03-16T10:00:56.918Z,16.53
2024-03-16T10:06:10.226Z,16.78
2024-03-16T10:11:19.303Z,17.06
2024-03-16T10:16:25.869Z,17.10
2024-03-16T10:21:39.242Z,16.86
2024-03-16T10:26:55.000Z,16.45
2024-03-16T10:31:59.766Z,16.42
2024-03-16T10:37:34.649Z,16.84
2024-03-16T10:42:39.005Z,17.37
2024-03-16T10:47:54.840Z,17.71
2024-03-16T10:54:08.153Z,17.78
2024-03-16T10:59:58.944Z,17.74
2024-03-16T11:05:41.322Z,18.06
2024-03-16T11:11:00.347Z,18.03
2024-03-16T11:16:30.848Z,17.96
2024-03-16T11:21:48.723Z,18.06
2024-03-16T11:27:19.051Z,18.25
2024-03-16T11:32:23.493Z,18.50
2024-03-16T11:37:57.225Z,18.63
2024-03-16T11:43:12.989Z,18.54
2024-03-16T11:48:20.256Z,18.50
2024-03-16T11:53:25.745Z,18.41
2024-03-16T11:59:06.113Z,18.32
2024-03-16T12:05:30.407Z,18.09
2024-03-16T12:11:39.873Z,17.80
2024-03-16T12:17:02.880Z,17.80
2024-03-16T12:22:16.161Z,17.97
2024-03-16T12:27:20.477Z,18.32
2024-03-16T12:32:29.335Z,18.76
2024-03-16T12:37:34.326Z,19.08
2024-03-16T12:42:45.609Z,19.50
2024-03-16T12:48:02.097Z,19.76
2024-03-16T12:53:21.622Z,19.76
2024-03-16T12:58:31.923Z,19.97
2024-03-16T13:03:39.293Z,19.72
2024-03-16T13:08:59.952Z,19.08
2024-03-16T13:14:04.712Z,17.92
2024-03-16T13:19:33.960Z,16.53
2024-03-16T13:24:49.751Z,15.42
2024-03-16T13:30:10.747Z,14.93
2024-03-16T13:36:02.177Z,14.86
2024-03-16T13:41:08.812Z,14.93
2024-03-16T13:46:48.696Z,15.05
2024-03-16T13:52:07.882Z,15.12
2024-03-16T13:57:12.468Z,15.15
2024-03-16T14:02:20.504Z,15.41
2024-03-16T14:07:25.200Z,15.77
2024-03-16T14:12:37.805Z,15.88
2024-03-16T14:18:23.509Z,15.93
2024-03-16T14:23:46.606Z,16.13
2024-03-16T14:28:52.247Z,16.52
2024-03-16T14:34:14.330Z,16.73
2024-03-16T14:39:22.114Z,16.92
2024-03-16T14:44:28.356Z,16.93
2024-03-16T14:49:32.749Z,16.75
2024-03-16T14:54:40.027Z,16.50
2024-03-16T14:59:44.268Z,16.31
2024-03-16T15:04:50.693Z,16.09
2024-03-16T15:09:55.474Z,15.88
2024-03-16T15:15:09.463Z,15.60
2024-03-16T15:20:16.470Z,15.41
2024-03-16T15:25:21.557Z,15.19
2024-03-16T15:30:26.040Z,14.86
2024-03-16T15:35:33.438Z,14.59
2024-03-16T15:40:38.340Z,14.37
2024-03-16T15:45:47.296Z,14.20
2024-03-16T15:50:53.082Z,14.21
2024-03-16T15:55:58.314Z,14.37
2024-03-16T16:01:08.440Z,14.48
2024-03-16T16:06:12.717Z,14.48
2024-03-16T16:11:16.442Z,14.43
2024-03-16T16:16:20.553Z,14.20
2024-03-16T16:22:04.326Z,13.86
2024-03-16T16:27:16.988Z,13.44
2024-03-16T16:32:23.182Z,13.11
2024-03-16T16:37:27.269Z,12.83
2024-03-16T16:42:50.872Z,12.53
2024-03-16T16:47:58.074Z,12.27
2024-03-16T16:53:12.226Z,12.02
2024-03-16T16:58:16.694Z,11.83
2024-03-16T17:03:29.820Z,11.63
2024-03-16T17:08:36.612Z,11.41
2024-03-16T17:13:42.605Z,11.24
2024-03-16T17:18:48.297Z,11.09
2024-03-16T17:24:04.477Z,10.98
2024-03-16T17:29:10.837Z,10.88
2024-03-16T17:34:15.006Z,10.82
2024-03-16T17:39:23.919Z,10.78
2024-03-16T17:44:32.574Z,10.79
2024-03-16T17:49:37.431Z,11.10
2024-03-16T17:54:43.326Z,11.39
2024-03-16T17:59:48.605Z,11.42
2024-03-16T18:04:53.567Z,11.32
2024-03-16T18:09:57.817Z,11.13
2024-03-16T18:15:03.609Z,10.95
2024-03-16T18:20:10.301Z,10.78
2024-03-16T18:25:15.110Z,10.66
2024-03-16T18:30:20.726Z,10.54
2024-03-16T18:35:25.556Z,10.46
2024-03-16T18:40:30.432Z,10.39
2024-03-16T18:45:38.624Z,10.38
2024-03-16T18:50:42.833Z,10.34
2024-03-16T18:55:47.122Z,10.32
2024-03-16T19:00:57.855Z,10.27
2024-03-16T19:06:03.394Z,10.23
2024-03-16T19:11:10.545Z,10.20
2024-03-16T19:16:16.291Z,10.20
2024-03-16T19:21:23.504Z,10.24
2024-03-16T19:26:33.437Z,10.19
2024-03-16T19:31:41.726Z,10.13
2024-03-16T19:36:47.447Z,10.07
2024-03-16T19:42:01.487Z,10.00
2024-03-16T19:47:09.734Z,9.93
2024-03-16T19:52:17.450Z,9.89
2024-03-16T19:57:25.470Z,9.76
2024-03-16T20:02:36.463Z,9.63
2024-03-16T20:07:42.285Z,9.54
2024-03-16T20:12:48.459Z,9.44
2024-03-16T20:18:15.616Z,9.37
2024-03-16T20:23:27.165Z,9.25
2024-03-16T20:28:32.064Z,9.18
2024-03-16T20:33:40.879Z,9.10
2024-03-16T20:38:48.960Z,9.00
2024-03-16T20:44:18.527Z,8.90
2024-03-16T20:49:25.631Z,8.81
2024-03-16T20:54:34.351Z,8.69
2024-03-16T20:59:42.774Z,8.57
2024-03-16T21:04:47.301Z,8.40
2024-03-16T21:10:15.054Z,8.31
2024-03-16T21:15:29.373Z,8.19
2024-03-16T21:20:34.375Z,8.11
2024-03-16T21:25:38.391Z,8.03
2024-03-16T21:30:42.946Z,7.94
2024-03-16T21:35:47.556Z,7.81
2024-03-16T21:40:57.669Z,7.62
2024-03-16T21:46:01.496Z,7.46
2024-03-16T21:51:08.904Z,7.33
2024-03-16T21:56:24.086Z,7.17
2024-03-16T22:01:38.383Z,7.05
2024-03-16T22:07:03.905Z,6.98
2024-03-16T22:12:09.080Z,6.92
2024-03-16T22:17:19.021Z,6.89
2024-03-16T22:22:36.750Z,6.83
2024-03-16T22:27:41.356Z,6.76
2024-03-16T22:33:06.782Z,6.67
2024-03-16T22:38:14.389Z,6.63
2024-03-16T22:43:22.087Z,6.64
2024-03-16T22:48:38.482Z,6.62
2024-03-16T22:54:04.695Z,6.53
2024-03-16T22:59:15.624Z,6.48
2024-03-16T23:04:22.790Z,6.44
2024-03-16T23:09:29.215Z,6.37
2024-03-16T23:15:08.726Z,6.27
2024-03-16T23:20:19.573Z,6.14
2024-03-16T23:25:24.124Z,6.07
2024-03-16T23:30:33.985Z,6.05
2024-03-16T23:35:58.656Z,6.04
2024-03-16T23:41:04.455Z,6.02
2024-03-16T23:46:42.457Z,5.99
2024-03-16T23:52:19.197Z,5.95
2024-03-16T23:57:43.550Z,5.92
